Observations for NANTES CHATEAU, France (LFRS)

LFRS 221300Z AUTO 30009KT 260V340 9999 BKN028 BKN038 09/03 Q1007 NOSIG  
LFRS 221230Z AUTO 30010KT 270V330 9999 FEW029 SCT036 BKN140 09/03 Q1008 NOSIG   
LFRS 221200Z AUTO 30010KT 270V340 CAVOK 08/04 Q1008 NOSIG   
LFRS 221130Z AUTO 30010KT 260V330 CAVOK 08/04 Q1009 NOSIG   
LFRS 221100Z AUTO 31010KT 270V330 CAVOK 07/04 Q1009 NOSIG   
LFRS 221030Z AUTO 31009KT CAVOK 07/04 Q1009 NOSIG   
LFRS 221000Z AUTO 30005KT 270V330 CAVOK 06/05 Q1009 NOSIG   
LFRS 220930Z AUTO 29005KT CAVOK 05/04 Q1009 NOSIG   
LFRS 220900Z AUTO 29007KT CAVOK 05/04 Q1009 NOSIG   
LFRS 220830Z AUTO 30007KT CAVOK 05/04 Q1009 NOSIG   
LFRS 220800Z AUTO 31006KT CAVOK 05/04 Q1008 NOSIG   
LFRS 220730Z AUTO 33008KT 300V020 9999 FEW013 SCT034 BKN045 06/04 Q1008 NOSIG   
LFRS 220700Z AUTO 22008KT 9999 BKN014/// BKN022/// OVC120/// ///TCU 07/06 Q1008 BECMG FEW040 BKN100 
LFRS 220630Z AUTO 21008KT 9999 FEW011/// SCT072/// BKN100/// ///TCU 07/07 Q1008 BECMG FEW040 BKN100 
LFRS 220600Z AUTO 20010KT 9999 FEW012/// BKN064/// OVC074/// ///CB 07/07 Q1008 TEMPO 2500 RA BECMG 32006KT FEW040 BKN100
LFRS 220530Z AUTO 19008KT 5000 RA BR BKN005/// BKN014/// OVC020/// ///CB 06/06 Q1009 TEMPO 2500 RA BECMG SCT025 
LFRS 220500Z AUTO 22005KT 130V270 4700 RA BR BKN006/// OVC014/// ///TCU 05/05 Q1010 TEMPO 2500 RA BKN007
LFRS 220430Z AUTO 18010KT 5000 -RA BR FEW007/// BKN012/// BKN019/// ///TCU 05/04 Q1010 TEMPO 2500 RA BKN007 
LFRS 220400Z AUTO 17010KT 5000 BR FEW015 SCT026 BKN037 04/04 Q1011 TEMPO 2500 RA BKN007 
LFRS 220330Z AUTO 17010KT 5000 -RA BR SCT014 OVC040 04/03 Q1012 TEMPO 2500 RA BKN007
LFRS 220300Z AUTO 18009KT 6000 -RA BKN020/// OVC030/// ///TCU 04/03 Q1013 TEMPO 2500 RA BKN007  
LFRS 220230Z AUTO 17008KT 6000 -DZ BKN020 BKN025 OVC034 03/02 Q1014 TEMPO 2500 RA BKN007
LFRS 220200Z AUTO 17010KT 6000 BKN023 OVC050 03/01 Q1015 BECMG 4500 -RA 
LFRS 220130Z AUTO 17007KT 6000 NSC 02/01 Q1015 BECMG 4500 -RA   
LFRS 220100Z AUTO 17008KT 5000 BR NSC 02/01 Q1016 NOSIG 
LFRS 220030Z AUTO 17006KT 4800 BR NSC 00/M00 Q1017 NOSIG
LFRS 220000Z AUTO 16006KT 4500 BR NSC M00/M01 Q1018 NOSIG   
LFRS 212330Z AUTO 17005KT 4300 BR NSC M01/M01 Q1018 BECMG 5000 NSW  
LFRS 212300Z AUTO 18005KT 4400 BR NSC M00/M01 Q1019 BECMG 5000 NSW  
LFRS 212230Z AUTO 21006KT 4700 BR NSC 00/M01 Q1019 BECMG 5000 NSW   
LFRS 212200Z AUTO 20006KT 5000 BR NSC M00/M01 Q1020 NOSIG   
LFRS 212130Z AUTO 17005KT 5000 BR NSC M00/M01 Q1020 NOSIG   
LFRS 212100Z AUTO 18005KT 5000 BR NSC M00/M01 Q1020 NOSIG   
LFRS 212030Z AUTO 19003KT 5000 BR NSC M00/M02 Q1021 NOSIG   
LFRS 212000Z AUTO 18005KT 6000 NSC 00/M02 Q1021 NOSIG   
LFRS 211930Z AUTO 23004KT 8000 NSC 01/M01 Q1021 NOSIG   
LFRS 211900Z AUTO 25003KT CAVOK 01/M02 Q1022 NOSIG  
LFRS 211830Z AUTO 26003KT CAVOK 01/M01 Q1022 NOSIG  
LFRS 211800Z AUTO 25003KT CAVOK 02/M01 Q1022 NOSIG  
LFRS 211730Z AUTO 27004KT CAVOK 03/M01 Q1022 NOSIG  
LFRS 211700Z AUTO 28004KT CAVOK 03/M01 Q1022 NOSIG  
LFRS 211630Z AUTO 29005KT CAVOK 04/M00 Q1022 NOSIG  
LFRS 211600Z AUTO 30004KT CAVOK 05/M01 Q1022 NOSIG  
LFRS 211530Z AUTO 29004KT 260V330 CAVOK 06/M00 Q1022 NOSIG  
LFRS 211500Z AUTO 30004KT 250V360 CAVOK 06/M00 Q1023 NOSIG  
LFRS 211430Z AUTO 32004KT 240V350 CAVOK 07/00 Q1023 NOSIG   
LFRS 211400Z AUTO 32004KT 270V030 CAVOK 07/M00 Q1023 NOSIG  
LFRS 211330Z AUTO 02005G16KT 310V110 CAVOK 06/M01 Q1023 NOSIG   
LFRS 211300Z AUTO 36004KT 270V050 CAVOK 07/M00 Q1024 NOSIG  
LFRS 211230Z AUTO 02004KT 340V070 9999 FEW028 06/M00 Q1024 NOSIG